Time;durP1;ratioP1;P1;durP2;ratioP2;P2;SDS_P1;SDS_P2;PMS_P1;PMS_P2;Temp;Humidity;BMP_temperature;BMP_pressure;BME280_temperature;BME280_humidity;BME280_pressure;Samples;Min_cycle;Max_cycle;Signal;HPM_P1;HPM_P2
2022/03/01 00:00:19;;;;;;;21.35;15.98;;;5.30;68.30;;;;;;5052730;28;20055;-83
2022/03/01 00:02:46;;;;;;;22.23;16.27;;;5.30;68.30;;;;;;5052769;28;20049;-83
2022/03/01 00:05:13;;;;;;;20.35;16.27;;;5.30;68.20;;;;;;5054758;28;20100;-83
2022/03/01 00:07:41;;;;;;;20.42;15.70;;;5.30;68.20;;;;;;5050123;28;20142;-83
2022/03/01 00:10:08;;;;;;;22.83;16.35;;;5.40;68.20;;;;;;5052486;28;20098;-83
2022/03/01 00:12:35;;;;;;;19.85;16.13;;;5.40;68.10;;;;;;5052361;28;20110;-83
2022/03/01 00:15:04;;;;;;;20.00;15.05;;;5.40;68.10;;;;;;5052447;28;20049;-83
2022/03/01 00:17:31;;;;;;;20.80;16.10;;;5.30;68.10;;;;;;5052575;28;20103;-83
2022/03/01 00:19:59;;;;;;;21.40;15.38;;;5.40;68.00;;;;;;5054282;28;20416;-83
2022/03/01 00:22:26;;;;;;;20.33;15.05;;;5.30;68.00;;;;;;5052271;28;20057;-83
2022/03/01 00:24:52;;;;;;;22.48;16.13;;;5.30;68.00;;;;;;5052119;28;20094;-83
2022/03/01 00:27:19;;;;;;;20.63;16.70;;;5.30;68.00;;;;;;5052207;28;20106;-83
2022/03/01 00:29:46;;;;;;;21.92;16.35;;;5.30;68.00;;;;;;5052270;28;20041;-83
2022/03/01 00:32:13;;;;;;;21.30;15.70;;;5.40;68.00;;;;;;5054221;28;20462;-83
2022/03/01 00:34:40;;;;;;;19.80;15.43;;;5.30;68.00;;;;;;5049783;28;20118;-83
2022/03/01 00:37:07;;;;;;;21.98;15.85;;;5.30;68.00;;;;;;5052030;28;20049;-83
2022/03/01 00:39:34;;;;;;;21.88;16.25;;;5.30;68.00;;;;;;5051557;28;20045;-83
2022/03/01 00:42:02;;;;;;;20.17;15.27;;;5.30;68.00;;;;;;5052143;28;20052;-83
2022/03/01 00:44:29;;;;;;;21.30;15.82;;;5.30;68.00;;;;;;5052109;28;20041;-83
2022/03/01 00:46:56;;;;;;;24.88;16.38;;;5.30;68.00;;;;;;5053741;28;20514;-83
2022/03/01 00:49:23;;;;;;;20.08;16.02;;;5.30;68.00;;;;;;5051748;28;20102;-83
2022/03/01 00:51:50;;;;;;;20.92;16.02;;;5.30;68.00;;;;;;5051020;28;20075;-83
2022/03/01 00:54:17;;;;;;;21.67;15.48;;;5.40;68.00;;;;;;5051453;28;20072;-83
2022/03/01 00:56:45;;;;;;;22.10;15.40;;;5.40;68.00;;;;;;5051778;28;20049;-83
2022/03/01 00:59:12;;;;;;;19.73;15.32;;;5.40;68.00;;;;;;5053772;28;20048;-83
2022/03/01 01:01:39;;;;;;;20.63;16.45;;;5.40;68.00;;;;;;5049115;28;20535;-83
2022/03/01 01:04:07;;;;;;;20.15;15.45;;;5.40;68.00;;;;;;5051305;28;20045;-83
2022/03/01 01:06:34;;;;;;;23.80;16.45;;;5.40;68.00;;;;;;5051531;28;20052;-83
2022/03/01 01:09:01;;;;;;;20.08;15.52;;;5.40;68.00;;;;;;5051045;28;20057;-83
2022/03/01 01:11:28;;;;;;;20.92;15.57;;;5.40;68.00;;;;;;5051701;28;20094;-83
2022/03/01 01:13:55;;;;;;;20.15;15.80;;;5.40;68.00;;;;;;5051320;28;20044;-83
2022/03/01 01:16:22;;;;;;;19.10;15.45;;;5.40;68.00;;;;;;5051247;28;20099;-83
2022/03/01 01:18:49;;;;;;;22.90;16.38;;;5.40;68.00;;;;;;5051121;28;20396;-83
2022/03/01 01:21:16;;;;;;;20.63;15.75;;;5.40;68.10;;;;;;5051297;28;20103;-83
2022/03/01 01:23:42;;;;;;;20.75;15.45;;;5.30;68.10;;;;;;5032578;28;20120;-83
2022/03/01 01:26:09;;;;;;;19.30;15.05;;;5.30;68.10;;;;;;5053061;28;20079;-83
2022/03/01 01:28:37;;;;;;;23.90;15.38;;;5.30;68.10;;;;;;5050911;28;20048;-83
2022/03/01 01:31:04;;;;;;;21.58;15.80;;;5.30;68.10;;;;;;5050926;28;20049;-83
2022/03/01 01:33:31;;;;;;;22.98;17.13;;;5.30;68.10;;;;;;5049808;28;20124;-83
2022/03/01 01:35:58;;;;;;;22.65;16.85;;;5.30;68.20;;;;;;5051177;28;20045;-83
2022/03/01 01:38:25;;;;;;;20.13;16.08;;;5.30;68.20;;;;;;5051331;28;20053;-83
2022/03/01 01:40:52;;;;;;;24.77;16.63;;;5.30;68.30;;;;;;5052324;28;20514;-83
2022/03/01 01:43:19;;;;;;;18.67;15.18;;;5.30;68.30;;;;;;5050666;28;20434;-83
2022/03/01 01:45:46;;;;;;;21.35;16.17;;;5.30;68.30;;;;;;5049640;28;20044;-83
2022/03/01 01:48:13;;;;;;;20.17;15.13;;;5.30;68.40;;;;;;5050667;28;20118;-83
2022/03/01 01:50:41;;;;;;;19.27;15.35;;;5.30;68.40;;;;;;5050765;28;20041;-83
2022/03/01 01:53:08;;;;;;;19.73;14.95;;;5.30;68.40;;;;;;5052292;28;20064;-83
2022/03/01 01:55:35;;;;;;;21.17;15.50;;;5.30;68.40;;;;;;5050521;28;20468;-83
2022/03/01 01:58:02;;;;;;;18.80;15.65;;;5.30;68.40;;;;;;5050449;28;20053;-83
2022/03/01 02:00:29;;;;;;;19.42;16.13;;;5.30;68.40;;;;;;5050524;28;20053;-83
2022/03/01 02:02:58;;;;;;;20.10;15.85;;;5.30;68.40;;;;;;5049234;28;20049;-83
2022/03/01 02:05:27;;;;;;;21.23;15.98;;;5.30;68.50;;;;;;5051007;28;20095;-83
2022/03/01 02:07:54;;;;;;;20.20;15.90;;;5.30;68.50;;;;;;5049735;28;20045;-83
2022/03/01 02:10:21;;;;;;;20.27;15.63;;;5.30;68.50;;;;;;5050340;28;20533;-83
2022/03/01 02:12:48;;;;;;;19.92;15.18;;;5.30;68.50;;;;;;5050267;28;20504;-83
2022/03/01 02:15:17;;;;;;;19.83;15.57;;;5.30;68.50;;;;;;5050388;28;20049;-83
2022/03/01 02:17:44;;;;;;;21.98;15.35;;;5.30;68.60;;;;;;5034648;28;20428;-83
2022/03/01 02:20:17;;;;;;;20.05;15.50;;;5.30;68.60;;;;;;5048120;28;20470;-83
2022/03/01 02:22:45;;;;;;;22.80;15.48;;;5.30;68.60;;;;;;5049181;28;20049;-83
2022/03/01 02:25:13;;;;;;;24.65;16.40;;;5.40;68.60;;;;;;5050151;28;20056;-83
2022/03/01 02:27:40;;;;;;;20.35;14.52;;;5.30;68.70;;;;;;5049998;28;20099;-83
2022/03/01 02:30:09;;;;;;;18.70;14.75;;;5.40;68.70;;;;;;5050240;28;20052;-83
2022/03/01 02:32:38;;;;;;;20.30;15.88;;;5.40;68.70;;;;;;5050286;28;20119;-83
2022/03/01 02:35:07;;;;;;;20.45;15.68;;;5.30;68.70;;;;;;5052114;28;20048;-83
2022/03/01 02:37:35;;;;;;;21.50;15.75;;;5.30;68.70;;;;;;5049676;28;20045;-83
2022/03/01 02:40:05;;;;;;;21.27;16.20;;;5.40;68.70;;;;;;5050004;28;20055;-83
2022/03/01 02:42:35;;;;;;;17.50;14.50;;;5.40;68.70;;;;;;5049991;28;20049;-83
2022/03/01 02:45:07;;;;;;;19.80;15.65;;;5.40;68.80;;;;;;5050257;28;20111;-83
2022/03/01 02:47:35;;;;;;;18.58;14.85;;;5.40;68.80;;;;;;5050124;28;20475;-83
2022/03/01 02:50:02;;;;;;;20.23;15.57;;;5.40;68.80;;;;;;5051609;28;20057;-83
2022/03/01 02:52:29;;;;;;;18.70;15.27;;;5.40;68.80;;;;;;5049814;28;20053;-83
2022/03/01 02:54:56;;;;;;;20.50;15.40;;;5.40;68.90;;;;;;5049987;28;20493;-83
2022/03/01 02:57:24;;;;;;;18.40;15.27;;;5.40;68.90;;;;;;5049911;28;20166;-83
2022/03/01 02:59:52;;;;;;;21.60;15.70;;;5.40;69.00;;;;;;5049939;28;20037;-83
2022/03/01 03:02:19;;;;;;;20.77;16.40;;;5.40;69.00;;;;;;5051205;28;20079;-83
2022/03/01 03:04:47;;;;;;;22.63;16.65;;;5.40;69.10;;;;;;5047942;28;20099;-83
2022/03/01 03:07:15;;;;;;;21.10;16.60;;;5.40;69.10;;;;;;5049766;28;20423;-83
2022/03/01 03:09:42;;;;;;;19.80;16.20;;;5.40;69.20;;;;;;5049762;28;20049;-83
2022/03/01 03:12:09;;;;;;;22.88;16.40;;;5.40;69.20;;;;;;5048664;28;20396;-83
2022/03/01 03:14:36;;;;;;;23.42;16.95;;;5.40;69.30;;;;;;5051056;28;20115;-83
2022/03/01 03:17:04;;;;;;;20.45;16.60;;;5.40;69.40;;;;;;5055485;28;20091;-83
2022/03/01 03:19:32;;;;;;;21.80;17.42;;;5.40;69.40;;;;;;5053131;28;20053;-83
2022/03/01 03:22:00;;;;;;;20.35;16.38;;;5.40;69.50;;;;;;5053460;28;20044;-83
2022/03/01 03:24:27;;;;;;;20.40;15.85;;;5.40;69.50;;;;;;5053429;28;20057;-83
2022/03/01 03:26:54;;;;;;;19.30;15.57;;;5.40;69.50;;;;;;5053380;28;20499;-83
2022/03/01 03:29:21;;;;;;;18.15;15.65;;;5.40;69.50;;;;;;5054613;28;20056;-83
2022/03/01 03:31:48;;;;;;;21.15;17.02;;;5.40;69.60;;;;;;5054369;28;20453;-83
2022/03/01 03:34:15;;;;;;;19.75;16.75;;;5.40;69.60;;;;;;5052905;28;20049;-82
2022/03/01 03:36:43;;;;;;;21.65;17.75;;;5.40;69.60;;;;;;5053139;28;20128;-83
2022/03/01 03:39:11;;;;;;;26.23;20.00;;;5.40;69.70;;;;;;5053083;28;20057;-83
2022/03/01 03:41:39;;;;;;;19.13;15.85;;;5.40;69.80;;;;;;5053328;28;20049;-83
2022/03/01 03:44:06;;;;;;;21.10;16.17;;;5.40;69.90;;;;;;5055010;28;20503;-83
2022/03/01 03:46:33;;;;;;;25.15;18.48;;;5.40;70.00;;;;;;5053045;28;20044;-83
2022/03/01 03:49:00;;;;;;;19.92;16.67;;;5.40;70.00;;;;;;5052630;28;20102;-83
2022/03/01 03:51:28;;;;;;;22.95;18.25;;;5.40;70.00;;;;;;5052858;28;20045;-83
2022/03/01 03:53:55;;;;;;;24.65;17.67;;;5.40;70.00;;;;;;5052921;28;20049;-83
2022/03/01 03:56:22;;;;;;;26.65;20.55;;;5.40;70.10;;;;;;5053982;28;20519;-83
2022/03/01 03:58:50;;;;;;;30.50;20.30;;;5.40;70.20;;;;;;5053839;28;20053;-83
2022/03/01 04:01:17;;;;;;;22.60;18.50;;;5.40;70.30;;;;;;5052775;28;20079;-83
2022/03/01 04:03:45;;;;;;;23.30;18.27;;;5.40;70.40;;;;;;5052291;28;20059;-83
2022/03/01 04:06:13;;;;;;;26.73;19.30;;;5.40;70.50;;;;;;5052991;28;20048;-83
2022/03/01 04:08:39;;;;;;;21.52;17.73;;;5.40;70.50;;;;;;5052725;28;20049;-83
2022/03/01 04:11:07;;;;;;;24.38;18.13;;;5.40;70.60;;;;;;5053581;28;20041;-83
2022/03/01 04:13:33;;;;;;;24.52;19.20;;;5.40;70.70;;;;;;5052470;28;20052;-83
2022/03/01 04:16:01;;;;;;;23.73;19.20;;;5.40;70.70;;;;;;5052415;28;20618;-83
2022/03/01 04:18:29;;;;;;;23.98;18.67;;;5.40;70.80;;;;;;5051890;28;20049;-83
2022/03/01 04:20:56;;;;;;;24.13;19.58;;;5.40;70.90;;;;;;5052587;28;20059;-83
2022/03/01 04:23:23;;;;;;;23.25;18.27;;;5.40;70.90;;;;;;5053595;28;20053;-83
2022/03/01 04:25:50;;;;;;;24.20;18.23;;;5.40;71.00;;;;;;5053545;28;20049;-83
2022/03/01 04:28:17;;;;;;;26.33;19.00;;;5.40;71.00;;;;;;5051093;28;20054;-83
2022/03/01 04:30:45;;;;;;;24.15;18.08;;;5.40;71.10;;;;;;5052231;28;20127;-83
2022/03/01 04:33:12;;;;;;;23.52;18.33;;;5.40;71.00;;;;;;5051942;28;20430;-83
2022/03/01 04:35:39;;;;;;;25.85;18.45;;;5.40;71.10;;;;;;5052382;28;20426;-83
2022/03/01 04:38:07;;;;;;;23.67;18.25;;;5.40;71.10;;;;;;5053983;28;20045;-83
2022/03/01 04:40:34;;;;;;;23.98;17.95;;;5.40;71.20;;;;;;5051995;28;20471;-83
2022/03/01 04:43:01;;;;;;;23.48;17.92;;;5.40;71.20;;;;;;5051914;28;20110;-83
2022/03/01 04:45:28;;;;;;;23.60;17.73;;;5.30;71.20;;;;;;5052073;28;20094;-83
2022/03/01 04:47:55;;;;;;;23.75;18.88;;;5.40;71.20;;;;;;5051593;28;20041;-83
2022/03/01 04:50:22;;;;;;;23.83;18.65;;;5.40;71.30;;;;;;5053123;28;20049;-83
2022/03/01 04:52:49;;;;;;;27.38;18.35;;;5.40;71.30;;;;;;5051655;28;20057;-83
2022/03/01 04:55:16;;;;;;;22.85;18.23;;;5.40;71.40;;;;;;5051608;28;20053;-83
2022/03/01 04:57:44;;;;;;;24.33;18.55;;;5.40;71.50;;;;;;5051507;28;20056;-83
2022/03/01 05:00:12;;;;;;;23.08;19.08;;;5.40;71.50;;;;;;5051773;28;20050;-83
2022/03/01 05:02:42;;;;;;;24.10;18.40;;;5.40;71.50;;;;;;5051424;28;20045;-83
2022/03/01 05:05:10;;;;;;;23.08;17.95;;;5.30;71.60;;;;;;5053519;28;20446;-83
2022/03/01 05:07:42;;;;;;;25.25;18.77;;;5.30;71.60;;;;;;5051346;28;20471;-83
2022/03/01 05:10:11;;;;;;;22.60;18.33;;;5.40;71.60;;;;;;5051439;28;20107;-83
2022/03/01 05:12:54;;;;;;;24.88;18.38;;;5.40;71.60;;;;;;5051486;28;20048;-83
2022/03/01 05:15:23;;;;;;;21.80;18.30;;;5.30;71.60;;;;;;5051051;28;20466;-83
2022/03/01 05:17:50;;;;;;;23.05;19.35;;;5.30;71.60;;;;;;5051370;28;20478;-83
2022/03/01 05:20:19;;;;;;;22.52;18.58;;;5.30;71.60;;;;;;5052711;28;20098;-83
2022/03/01 05:22:46;;;;;;;23.83;18.98;;;5.30;71.60;;;;;;5051878;28;20102;-83
2022/03/01 05:25:15;;;;;;;23.27;19.15;;;5.30;71.60;;;;;;5051186;28;20053;-83
2022/03/01 05:27:44;;;;;;;22.05;18.25;;;5.40;71.60;;;;;;5051107;28;20041;-83
2022/03/01 05:30:14;;;;;;;21.90;18.23;;;5.30;71.60;;;;;;5050811;28;20056;-83
2022/03/01 05:32:46;;;;;;;26.13;19.52;;;5.30;71.70;;;;;;5051148;28;22320;-83
2022/03/01 05:35:17;;;;;;;23.02;17.80;;;5.30;71.70;;;;;;5049216;28;20049;-83
2022/03/01 05:37:47;;;;;;;23.05;19.13;;;5.30;71.70;;;;;;5049775;28;20053;-83
2022/03/01 05:40:14;;;;;;;23.67;19.13;;;5.30;71.70;;;;;;5050786;28;20511;-83
2022/03/01 05:42:41;;;;;;;25.15;18.63;;;5.30;71.70;;;;;;5050949;28;20040;-83
2022/03/01 05:45:09;;;;;;;22.23;18.30;;;5.30;71.80;;;;;;5050617;28;20037;-83
2022/03/01 05:47:36;;;;;;;24.30;18.50;;;5.30;71.70;;;;;;5050814;28;20061;-83
2022/03/01 05:50:03;;;;;;;22.75;18.15;;;5.30;71.70;;;;;;5052821;28;20667;-83
2022/03/01 05:52:31;;;;;;;22.80;18.23;;;5.30;71.70;;;;;;5050517;28;20465;-83
2022/03/01 05:54:59;;;;;;;23.27;19.05;;;5.30;71.70;;;;;;5050562;28;20470;-83
2022/03/01 05:57:28;;;;;;;22.27;18.00;;;5.30;71.70;;;;;;5050562;28;20099;-83
2022/03/01 05:59:56;;;;;;;22.45;17.83;;;5.30;71.70;;;;;;5050382;28;20052;-83
2022/03/01 06:02:24;;;;;;;26.52;18.77;;;5.30;71.60;;;;;;5051756;28;20041;-83
2022/03/01 06:04:52;;;;;;;24.25;18.35;;;5.30;71.60;;;;;;5051936;28;20045;-83
2022/03/01 06:07:19;;;;;;;21.60;17.95;;;5.30;71.60;;;;;;5050412;28;20106;-83
2022/03/01 06:09:47;;;;;;;22.60;18.35;;;5.30;71.60;;;;;;5050373;28;20045;-83
2022/03/01 06:12:14;;;;;;;24.13;17.77;;;5.30;71.60;;;;;;5050661;28;20056;-83
2022/03/01 06:14:41;;;;;;;21.73;17.85;;;5.30;71.60;;;;;;5048889;28;20458;-83
2022/03/01 06:17:08;;;;;;;24.48;18.77;;;5.30;71.60;;;;;;5052304;28;20580;-83
2022/03/01 06:19:36;;;;;;;21.98;18.67;;;5.30;71.60;;;;;;5050204;28;20110;-83
2022/03/01 06:22:04;;;;;;;23.30;18.55;;;5.30;71.60;;;;;;5050143;28;20572;-83
2022/03/01 06:24:32;;;;;;;22.15;18.80;;;5.30;71.60;;;;;;5050217;28;20048;-83
2022/03/01 06:26:59;;;;;;;23.20;18.33;;;5.30;71.60;;;;;;5050204;28;20052;-85
2022/03/01 06:29:26;;;;;;;25.45;19.52;;;5.40;71.60;;;;;;5050406;28;20049;-85
2022/03/01 06:31:57;;;;;;;25.13;19.42;;;5.40;71.60;;;;;;5050299;28;20051;-85
2022/03/01 06:34:24;;;;;;;25.60;19.83;;;5.40;71.70;;;;;;5050145;28;20060;-86
2022/03/01 06:36:51;;;;;;;25.20;19.90;;;5.40;71.90;;;;;;5050053;28;20048;-86
2022/03/01 06:39:19;;;;;;;22.90;19.65;;;5.40;71.90;;;;;;5050132;28;20084;-86
2022/03/01 06:41:46;;;;;;;22.52;19.30;;;5.40;72.00;;;;;;5050152;28;20415;-86
2022/03/01 06:44:13;;;;;;;22.77;18.67;;;5.40;72.10;;;;;;5051723;28;20049;-85
2022/03/01 06:46:41;;;;;;;25.77;19.38;;;5.40;72.20;;;;;;5050391;28;20045;-85
2022/03/01 06:49:08;;;;;;;25.50;20.38;;;5.40;72.30;;;;;;5050373;28;20053;-85
2022/03/01 06:51:35;;;;;;;22.27;18.67;;;5.40;72.50;;;;;;5054064;28;20045;-83
2022/03/01 06:54:02;;;;;;;27.13;20.05;;;5.40;72.70;;;;;;5054014;28;20053;-83
2022/03/01 06:56:29;;;;;;;23.83;19.30;;;5.40;72.80;;;;;;5053925;28;20049;-82
2022/03/01 06:58:56;;;;;;;25.55;20.15;;;5.30;72.90;;;;;;5052846;28;20045;-82
2022/03/01 07:01:23;;;;;;;30.88;19.52;;;5.30;73.00;;;;;;5053981;28;20400;-82
2022/03/01 07:03:51;;;;;;;26.25;19.92;;;5.30;73.10;;;;;;5053851;28;20056;-82
2022/03/01 07:06:17;;;;;;;24.88;19.63;;;5.30;73.30;;;;;;5054108;28;20110;-82
2022/03/01 07:08:44;;;;;;;26.58;19.55;;;5.30;73.40;;;;;;5037976;28;20041;-82
2022/03/01 07:11:11;;;;;;;29.45;21.23;;;5.30;73.60;;;;;;5055652;28;20049;-82
2022/03/01 07:13:38;;;;;;;24.98;19.77;;;5.30;73.70;;;;;;5052635;28;20457;-82
2022/03/01 07:16:05;;;;;;;28.58;21.35;;;5.30;73.90;;;;;;5052159;28;20106;-83
2022/03/01 07:18:32;;;;;;;30.58;21.13;;;5.30;74.10;;;;;;5050644;28;20136;-83
2022/03/01 07:20:59;;;;;;;24.90;20.13;;;5.30;74.30;;;;;;5052849;28;20106;-82
2022/03/01 07:23:26;;;;;;;30.95;22.70;;;5.30;74.40;;;;;;5053235;28;20044;-83
2022/03/01 07:25:53;;;;;;;27.58;20.95;;;5.30;74.60;;;;;;5054619;28;20404;-83
2022/03/01 07:28:20;;;;;;;28.05;20.95;;;5.30;74.80;;;;;;5052997;28;20045;-82
2022/03/01 07:30:47;;;;;;;33.25;22.70;;;5.20;74.90;;;;;;5052581;28;20044;-82
2022/03/01 07:33:14;;;;;;;30.30;22.13;;;5.30;75.10;;;;;;5052943;28;20049;-82
2022/03/01 07:35:41;;;;;;;30.27;24.42;;;5.30;75.20;;;;;;5052886;28;20124;-89
2022/03/01 07:38:08;;;;;;;27.85;22.83;;;5.20;75.30;;;;;;5054168;28;20041;-89
2022/03/01 07:40:35;;;;;;;26.25;22.13;;;5.20;75.50;;;;;;5053009;28;20427;-90
2022/03/01 07:43:02;;;;;;;28.50;22.13;;;5.30;75.60;;;;;;5053610;28;20507;-89
2022/03/01 07:45:29;;;;;;;26.60;20.65;;;5.30;75.70;;;;;;5051647;28;20041;-89
2022/03/01 07:47:57;;;;;;;26.95;21.67;;;5.30;75.80;;;;;;5051879;28;20048;-90
2022/03/01 07:50:24;;;;;;;26.33;20.75;;;5.30;75.90;;;;;;5053534;28;20135;-89
2022/03/01 07:52:52;;;;;;;27.90;21.42;;;5.30;75.90;;;;;;5053400;28;20055;-88
2022/03/01 07:55:20;;;;;;;28.00;22.40;;;5.30;76.00;;;;;;5051167;28;20049;-89
2022/03/01 07:57:50;;;;;;;28.75;21.52;;;5.30;76.10;;;;;;5051447;28;20048;-89
2022/03/01 08:00:17;;;;;;;26.27;20.90;;;5.30;76.20;;;;;;5049893;28;20056;-89
2022/03/01 08:02:44;;;;;;;28.23;21.13;;;5.30;76.20;;;;;;5033189;28;20041;-89
2022/03/01 08:05:11;;;;;;;30.13;22.50;;;5.30;76.30;;;;;;5053369;28;20135;-89
2022/03/01 08:07:49;;;;;;;27.48;22.25;;;5.40;76.40;;;;;;5052090;28;20095;-90
2022/03/01 08:10:16;;;;;;;29.40;23.70;;;5.40;76.40;;;;;;5048500;28;20053;-90
2022/03/01 08:12:43;;;;;;;28.73;22.13;;;5.40;76.50;;;;;;5045562;28;20053;-89
2022/03/01 08:15:10;;;;;;;27.20;22.10;;;5.40;76.60;;;;;;5039050;28;20045;-89
2022/03/01 08:17:52;;;;;;;27.48;21.95;;;5.40;76.70;;;;;;5051108;28;20045;-90
2022/03/01 08:20:20;;;;;;;26.35;21.38;;;5.40;76.70;;;;;;5049504;28;20057;-90
2022/03/01 08:22:47;;;;;;;27.73;21.67;;;5.40;76.80;;;;;;5050980;28;20041;-90
2022/03/01 08:25:15;;;;;;;26.83;22.15;;;5.40;76.80;;;;;;5050758;28;20049;-90
2022/03/01 08:27:43;;;;;;;26.02;20.98;;;5.40;76.80;;;;;;5049977;28;20056;-89
2022/03/01 08:30:10;;;;;;;27.77;21.33;;;5.40;76.90;;;;;;5051029;28;20044;-89
2022/03/01 08:32:38;;;;;;;28.70;22.38;;;5.50;76.90;;;;;;5049944;28;20045;-89
2022/03/01 08:35:05;;;;;;;27.48;22.85;;;5.50;76.90;;;;;;5052802;28;20049;-89
2022/03/01 08:37:33;;;;;;;30.45;23.23;;;5.50;77.00;;;;;;5050830;28;20049;-89
2022/03/01 08:40:00;;;;;;;28.38;22.17;;;5.50;77.10;;;;;;5048530;28;20052;-91
2022/03/01 08:42:27;;;;;;;28.83;22.70;;;5.50;77.10;;;;;;5050093;28;20053;-90
2022/03/01 08:44:53;;;;;;;28.50;22.80;;;5.60;77.20;;;;;;5051107;28;20048;-89
2022/03/01 08:47:23;;;;;;;28.17;22.98;;;5.60;77.20;;;;;;5052193;28;20102;-89
2022/03/01 08:49:50;;;;;;;29.65;22.17;;;5.60;77.30;;;;;;5050797;28;20466;-90
2022/03/01 08:52:17;;;;;;;29.48;22.25;;;5.70;77.30;;;;;;5005279;28;1290114;-90
2022/03/01 08:54:44;;;;;;;26.95;21.95;;;5.70;77.30;;;;;;5050604;28;20083;-90
2022/03/01 08:57:11;;;;;;;28.38;21.70;;;5.70;77.30;;;;;;5050506;28;20064;-90
2022/03/01 08:59:38;;;;;;;27.80;21.80;;;5.80;77.30;;;;;;5051344;28;20068;-89
2022/03/01 09:02:05;;;;;;;33.08;23.05;;;5.90;77.40;;;;;;5052767;28;20450;-91
2022/03/01 09:04:32;;;;;;;30.23;23.58;;;5.90;77.40;;;;;;5052780;28;20055;-95
2022/03/01 09:07:00;;;;;;;30.25;23.15;;;5.90;77.40;;;;;;5050405;28;20502;-89
2022/03/01 09:09:27;;;;;;;27.00;22.42;;;5.90;77.40;;;;;;5051361;28;20453;-89
2022/03/01 09:11:54;;;;;;;27.67;22.23;;;5.90;77.40;;;;;;5049773;28;20416;-90
2022/03/01 09:14:21;;;;;;;29.98;22.05;;;6.00;77.40;;;;;;5051643;28;20048;-90
2022/03/01 09:16:47;;;;;;;24.50;21.27;;;5.90;77.40;;;;;;5050064;28;20049;-91
2022/03/01 09:19:15;;;;;;;27.35;20.60;;;6.00;77.30;;;;;;5050505;28;20052;-90
2022/03/01 09:21:43;;;;;;;26.77;21.08;;;6.00;77.30;;;;;;5050291;28;20053;-89
2022/03/01 09:24:09;;;;;;;26.58;20.13;;;6.00;77.30;;;;;;5049590;28;20040;-89
2022/03/01 09:26:37;;;;;;;23.88;20.30;;;6.00;77.20;;;;;;5051199;28;20053;-89
2022/03/01 09:29:03;;;;;;;26.27;20.77;;;6.00;77.10;;;;;;5053280;28;20120;-91
2022/03/01 09:31:30;;;;;;;30.00;21.73;;;6.10;77.10;;;;;;5050097;28;20049;-89
2022/03/01 09:33:58;;;;;;;26.92;22.08;;;6.10;77.10;;;;;;5049914;28;20049;-90
2022/03/01 09:36:25;;;;;;;26.63;21.58;;;6.10;77.00;;;;;;5050670;28;20053;-90
2022/03/01 09:38:52;;;;;;;25.20;20.17;;;6.10;77.00;;;;;;5051057;28;20044;-90
2022/03/01 09:41:19;;;;;;;25.08;20.75;;;6.10;76.90;;;;;;5053663;28;20052;-94
2022/03/01 09:43:46;;;;;;;25.33;20.60;;;6.20;76.90;;;;;;5051139;28;20072;-90
2022/03/01 09:46:15;;;;;;;26.77;20.33;;;6.20;76.90;;;;;;5049906;28;20052;-91
2022/03/01 09:48:42;;;;;;;27.92;21.15;;;6.20;76.80;;;;;;5049784;28;20045;-90
2022/03/01 09:51:11;;;;;;;25.05;20.98;;;6.20;76.80;;;;;;5047859;28;20045;-90
2022/03/01 09:53:41;;;;;;;29.27;21.60;;;6.20;76.80;;;;;;5049732;28;20515;-90
2022/03/01 09:56:09;;;;;;;28.38;21.33;;;6.20;76.70;;;;;;5052877;28;20473;-90
2022/03/01 09:58:38;;;;;;;25.98;20.83;;;6.30;76.70;;;;;;5052249;28;20049;-91
2022/03/01 10:01:06;;;;;;;29.52;21.92;;;6.30;76.60;;;;;;5039508;28;20141;-91
2022/03/01 10:03:36;;;;;;;26.38;22.08;;;6.30;76.60;;;;;;5040520;28;20049;-89
2022/03/01 10:06:12;;;;;;;25.33;21.58;;;6.30;76.60;;;;;;5049248;28;20083;-91
2022/03/01 10:08:40;;;;;;;26.05;21.30;;;6.30;76.60;;;;;;5049235;28;20509;-91
2022/03/01 10:11:08;;;;;;;26.77;20.85;;;6.30;76.60;;;;;;5083774;28;20128;-90
2022/03/01 10:13:40;;;;;;;26.77;21.83;;;6.40;76.60;;;;;;5049093;28;20064;-90
2022/03/01 10:16:13;;;;;;;28.17;22.08;;;6.40;76.50;;;;;;5050244;28;20041;-91
2022/03/01 10:18:49;;;;;;;31.77;21.80;;;6.40;76.50;;;;;;5050416;28;20590;-91
2022/03/01 10:21:18;;;;;;;30.35;21.40;;;6.40;76.40;;;;;;5049042;28;20045;-91
2022/03/01 10:23:49;;;;;;;27.83;21.02;;;6.40;76.40;;;;;;5033203;28;20056;-90
2022/03/01 10:26:19;;;;;;;27.65;21.52;;;6.40;76.30;;;;;;5051955;28;20049;-91
2022/03/01 10:28:47;;;;;;;24.80;20.38;;;6.50;76.30;;;;;;5049599;28;20056;-89
2022/03/01 10:31:24;;;;;;;25.02;20.50;;;6.50;76.20;;;;;;5048914;28;20071;-91
2022/03/01 10:34:11;;;;;;;28.42;21.83;;;6.50;76.20;;;;;;5050214;28;20049;-90
2022/03/01 10:36:47;;;;;;;26.85;21.50;;;6.60;76.20;;;;;;5049394;28;20136;-92
2022/03/01 10:39:17;;;;;;;27.98;20.58;;;6.60;76.20;;;;;;5049112;28;20081;-92
2022/03/01 10:41:46;;;;;;;26.13;21.15;;;6.60;76.10;;;;;;5033626;28;20049;-91
2022/03/01 10:44:18;;;;;;;25.38;21.08;;;6.60;76.10;;;;;;5047498;28;20041;-93
2022/03/01 10:46:54;;;;;;;27.85;21.80;;;6.60;76.00;;;;;;5050981;28;20055;-91
2022/03/01 10:49:23;;;;;;;27.13;21.95;;;6.60;76.00;;;;;;5049236;28;20053;-91
2022/03/01 10:51:59;;;;;;;28.85;21.98;;;6.70;75.90;;;;;;5048899;28;20491;-91
2022/03/01 10:54:28;;;;;;;26.35;20.98;;;6.70;75.90;;;;;;5050213;28;20063;-91
2022/03/01 10:56:57;;;;;;;28.70;22.13;;;6.70;75.80;;;;;;5047624;28;20065;-92
2022/03/01 10:59:26;;;;;;;25.58;22.67;;;6.80;75.70;;;;;;5050298;28;20499;-91
2022/03/01 11:01:54;;;;;;;26.77;20.15;;;6.80;75.70;;;;;;5083970;28;20534;-91
2022/03/01 11:04:21;;;;;;;30.15;21.40;;;6.90;75.70;;;;;;5048513;28;20045;-92
2022/03/01 11:07:02;;;;;;;28.65;22.30;;;6.90;75.60;;;;;;5048940;28;20060;-91
2022/03/01 11:09:36;;;;;;;26.10;20.42;;;6.90;75.50;;;;;;5049890;28;20049;-92
2022/03/01 11:12:21;;;;;;;24.50;20.45;;;7.00;75.50;;;;;;5049728;28;20408;-92
2022/03/01 11:15:02;;;;;;;28.85;21.63;;;7.00;75.40;;;;;;5034504;28;20083;-92
2022/03/01 11:17:59;;;;;;;28.70;20.13;;;7.10;75.40;;;;;;5049228;28;20068;-91
2022/03/01 11:20:35;;;;;;;29.17;20.75;;;7.10;75.40;;;;;;5047101;28;20115;-92
2022/03/01 11:23:05;;;;;;;26.92;20.27;;;7.20;75.30;;;;;;5078598;28;20060;-92
2022/03/01 11:25:47;;;;;;;27.50;22.23;;;7.30;75.20;;;;;;5049023;28;20053;-93
2022/03/01 11:28:18;;;;;;;26.60;19.40;;;7.40;75.00;;;;;;5049009;28;20152;-92
2022/03/01 11:30:51;;;;;;;25.20;19.92;;;7.40;74.90;;;;;;5048693;28;20135;-93
2022/03/01 11:33:35;;;;;;;25.90;20.17;;;7.50;74.80;;;;;;5047626;28;20049;-92
2022/03/01 11:36:03;;;;;;;25.23;19.30;;;7.50;74.70;;;;;;5050787;28;20084;-91
2022/03/01 11:38:32;;;;;;;25.88;19.85;;;7.60;74.60;;;;;;5052915;28;20056;-92
2022/03/01 11:41:15;;;;;;;25.55;19.33;;;7.70;74.40;;;;;;5052432;28;20066;-91
2022/03/01 11:43:42;;;;;;;27.58;20.15;;;7.80;74.30;;;;;;5052414;28;20048;-92
2022/03/01 11:46:19;;;;;;;28.15;18.75;;;7.90;74.10;;;;;;5051272;28;20044;-93
2022/03/01 11:48:55;;;;;;;24.60;19.00;;;7.90;74.00;;;;;;5052199;28;20087;-92
2022/03/01 11:51:39;;;;;;;23.40;18.40;;;8.00;73.80;;;;;;5052584;28;20049;-92
2022/03/01 11:54:11;;;;;;;23.15;18.23;;;8.10;73.60;;;;;;5052927;28;20068;-91
2022/03/01 11:56:40;;;;;;;24.02;18.25;;;8.20;73.50;;;;;;5051773;28;20107;-91
2022/03/01 11:59:11;;;;;;;23.73;18.60;;;8.20;73.30;;;;;;5054799;28;20495;-91
2022/03/01 12:01:59;;;;;;;23.08;18.38;;;8.30;73.20;;;;;;5052851;28;20533;-91
2022/03/01 12:04:27;;;;;;;23.65;17.05;;;8.30;73.00;;;;;;5052912;28;20080;-91
2022/03/01 12:06:55;;;;;;;24.77;17.92;;;8.40;72.90;;;;;;5052557;28;20103;-92
2022/03/01 12:09:25;;;;;;;22.52;17.25;;;8.40;72.80;;;;;;5052912;28;20067;-91
2022/03/01 12:12:06;;;;;;;20.85;17.27;;;8.40;72.70;;;;;;5051606;28;20053;-91
2022/03/01 12:14:35;;;;;;;21.50;17.80;;;8.50;72.50;;;;;;5052793;28;20542;-91
2022/03/01 12:17:17;;;;;;;26.55;17.13;;;8.50;72.50;;;;;;5054281;28;20049;-91
2022/03/01 12:19:44;;;;;;;22.88;17.70;;;8.50;72.30;;;;;;5051743;28;20049;-92
2022/03/01 12:22:15;;;;;;;22.25;17.65;;;8.60;72.20;;;;;;5052887;28;20049;-93
2022/03/01 12:24:47;;;;;;;22.40;16.38;;;8.60;72.10;;;;;;5051932;28;20056;-93
2022/03/01 12:27:15;;;;;;;21.60;16.55;;;8.70;71.90;;;;;;5052853;28;20453;-91
2022/03/01 12:29:46;;;;;;;21.58;17.40;;;8.70;71.80;;;;;;5051355;28;20048;-92
2022/03/01 12:32:13;;;;;;;21.67;17.08;;;8.70;71.70;;;;;;5054140;28;20076;-93
2022/03/01 12:34:42;;;;;;;23.10;17.23;;;8.80;71.60;;;;;;5045363;28;20507;-92
2022/03/01 12:37:14;;;;;;;22.92;17.10;;;8.70;71.50;;;;;;5052558;28;20419;-92
2022/03/01 12:39:41;;;;;;;21.83;16.45;;;8.80;71.40;;;;;;5052534;28;20047;-93
2022/03/01 12:42:09;;;;;;;21.20;17.73;;;8.80;71.40;;;;;;5052708;28;20040;-91